Time;durP1;ratioP1;P1;durP2;ratioP2;P2;SDS_P1;SDS_P2;PMS_P1;PMS_P2;Temp;Humidity;BMP_temperature;BMP_pressure;BME280_temperature;BME280_humidity;BME280_pressure;Samples;Min_cycle;Max_cycle;Signal;HPM_P1;HPM_P2
2022/03/23 00:01:53;;;;;;;0.60;0.60;;;5.40;68.70;;;;;;5031537;28;20017;-72
2022/03/23 00:04:19;;;;;;;0.30;0.30;;;5.50;69.00;;;;;;5031406;28;20382;-72
2022/03/23 00:06:45;;;;;;;0.40;0.40;;;5.60;69.40;;;;;;5031442;28;20045;-72
2022/03/23 00:09:12;;;;;;;0.35;0.35;;;5.70;68.50;;;;;;5031441;28;20022;-72
2022/03/23 00:11:38;;;;;;;1.52;1.48;;;5.80;68.60;;;;;;5013836;28;20076;-72
2022/03/23 00:14:06;;;;;;;0.50;0.50;;;5.70;68.70;;;;;;5031476;28;20057;-72
2022/03/23 00:16:34;;;;;;;0.80;0.80;;;5.80;68.90;;;;;;5031446;28;20088;-72
2022/03/23 00:19:00;;;;;;;0.40;0.40;;;5.90;68.40;;;;;;5029990;28;20287;-72
2022/03/23 00:21:26;;;;;;;0.85;0.85;;;5.80;68.20;;;;;;5031484;28;20040;-72
2022/03/23 00:23:52;;;;;;;0.60;0.60;;;5.70;68.10;;;;;;5013687;28;20068;-72
2022/03/23 00:26:17;;;;;;;0.40;0.40;;;5.50;68.40;;;;;;4996981;28;20048;-72
2022/03/23 00:28:43;;;;;;;0.38;0.38;;;4.90;69.80;;;;;;4997127;28;20045;-72
2022/03/23 00:31:09;;;;;;;1.10;1.10;;;4.70;71.00;;;;;;5031736;28;20013;-72
2022/03/23 00:33:35;;;;;;;0.30;0.30;;;4.80;70.60;;;;;;5013486;28;20116;-72
2022/03/23 00:36:02;;;;;;;1.08;1.05;;;5.20;69.70;;;;;;5031055;28;20384;-72
2022/03/23 00:38:28;;;;;;;8.77;1.92;;;5.60;68.50;;;;;;5013415;28;20366;-72
2022/03/23 00:40:54;;;;;;;1.52;1.52;;;5.80;67.70;;;;;;5029974;28;20033;-72
2022/03/23 00:43:20;;;;;;;0.30;0.30;;;5.60;67.00;;;;;;5031265;28;20397;-72
2022/03/23 00:45:45;;;;;;;0.68;0.68;;;5.30;68.50;;;;;;5031437;28;20021;-72
2022/03/23 00:48:11;;;;;;;0.52;0.52;;;5.60;68.60;;;;;;5032644;28;20088;-72
2022/03/23 00:50:38;;;;;;;0.45;0.45;;;5.90;67.40;;;;;;5017127;28;20053;-72
2022/03/23 00:53:04;;;;;;;0.57;0.55;;;5.80;66.30;;;;;;5016947;28;20374;-72
2022/03/23 00:55:30;;;;;;;1.20;1.20;;;5.50;68.00;;;;;;5033211;28;20083;-72
2022/03/23 00:57:56;;;;;;;0.88;0.88;;;5.20;68.30;;;;;;5034548;28;20025;-72
2022/03/23 01:00:22;;;;;;;0.30;0.30;;;5.10;68.60;;;;;;5034467;28;20461;-72
2022/03/23 01:02:49;;;;;;;0.82;0.82;;;5.10;69.00;;;;;;5034329;28;20041;-72
2022/03/23 01:05:16;;;;;;;0.40;0.40;;;4.90;70.30;;;;;;5016867;28;20071;-72
2022/03/23 01:07:43;;;;;;;0.88;0.82;;;5.00;70.30;;;;;;5032996;28;20025;-72
2022/03/23 01:10:11;;;;;;;1.30;1.20;;;5.10;70.10;;;;;;5016465;28;20034;-72
2022/03/23 01:12:39;;;;;;;6.50;1.85;;;5.40;69.60;;;;;;5016724;28;20547;-72
2022/03/23 01:15:06;;;;;;;0.77;0.77;;;5.30;68.60;;;;;;5034152;28;20029;-72
2022/03/23 01:17:32;;;;;;;1.60;1.50;;;4.80;69.30;;;;;;5032723;28;20396;-71
2022/03/23 01:19:58;;;;;;;0.30;0.30;;;4.50;70.10;;;;;;5034212;28;20029;-72
2022/03/23 01:22:24;;;;;;;0.40;0.40;;;4.50;71.10;;;;;;5034127;28;20029;-72
2022/03/23 01:24:49;;;;;;;0.40;0.40;;;4.20;72.40;;;;;;5033986;28;20029;-72
2022/03/23 01:27:15;;;;;;;1.42;0.82;;;4.10;74.10;;;;;;5016313;28;20500;-72
2022/03/23 01:29:41;;;;;;;0.70;0.70;;;4.30;73.90;;;;;;5016194;28;20026;-71
2022/03/23 01:32:08;;;;;;;0.88;0.88;;;4.30;72.90;;;;;;5033867;28;20361;-72
2022/03/23 01:34:34;;;;;;;0.90;0.90;;;4.40;72.40;;;;;;5032737;28;20028;-72
2022/03/23 01:37:00;;;;;;;1.23;1.23;;;4.70;71.90;;;;;;5033703;28;20022;-72
2022/03/23 01:39:25;;;;;;;0.30;0.30;;;4.90;69.80;;;;;;5032665;28;20112;-72
2022/03/23 01:41:51;;;;;;;0.47;0.47;;;5.20;68.10;;;;;;5033879;28;20389;-72
2022/03/23 01:44:24;;;;;;;0.30;0.30;;;5.30;67.20;;;;;;5033675;28;20026;-72
2022/03/23 01:47:04;;;;;;;0.30;0.30;;;5.30;66.50;;;;;;5015769;28;20392;-72
2022/03/23 01:49:30;;;;;;;0.57;0.57;;;5.20;66.20;;;;;;5033602;28;20029;-72
2022/03/23 01:51:55;;;;;;;0.70;0.70;;;5.20;66.00;;;;;;5033587;28;20024;-72
2022/03/23 01:54:21;;;;;;;0.38;0.38;;;5.10;66.30;;;;;;5033389;28;20053;-72
2022/03/23 01:56:48;;;;;;;0.40;0.40;;;5.00;66.50;;;;;;5031979;28;20022;-72
2022/03/23 01:59:16;;;;;;;0.35;0.35;;;4.60;67.40;;;;;;5014844;28;20034;-72
2022/03/23 02:01:43;;;;;;;0.40;0.40;;;4.40;68.20;;;;;;5015541;28;20555;-72
2022/03/23 02:04:09;;;;;;;0.40;0.40;;;4.30;69.40;;;;;;5033300;28;20032;-72
2022/03/23 02:06:35;;;;;;;0.30;0.30;;;4.50;68.80;;;;;;5033264;28;20057;-72
2022/03/23 02:09:02;;;;;;;0.35;0.35;;;4.60;68.60;;;;;;5015488;28;20033;-72
2022/03/23 02:11:29;;;;;;;4.82;0.73;;;4.80;67.90;;;;;;5031784;28;20025;-72
2022/03/23 02:13:55;;;;;;;0.77;0.77;;;4.50;68.20;;;;;;4999481;28;20056;-72
2022/03/23 02:16:20;;;;;;;5.47;3.13;;;4.40;68.60;;;;;;5032836;28;20030;-72
2022/03/23 02:18:46;;;;;;;0.47;0.47;;;4.30;69.10;;;;;;5033023;28;20022;-72
2022/03/23 02:21:16;;;;;;;0.30;0.30;;;4.40;69.90;;;;;;5031805;28;20027;-72
2022/03/23 02:23:42;;;;;;;0.40;0.40;;;4.60;70.10;;;;;;5032926;28;20036;-72
2022/03/23 02:26:09;;;;;;;0.77;0.77;;;4.60;68.10;;;;;;5014918;28;20052;-72
2022/03/23 02:28:36;;;;;;;0.50;0.50;;;4.50;69.90;;;;;;5033253;28;20167;-72
2022/03/23 02:31:03;;;;;;;0.30;0.30;;;4.40;68.50;;;;;;5032763;28;20022;-72
2022/03/23 02:33:28;;;;;;;0.30;0.30;;;4.50;69.10;;;;;;4998679;28;20033;-72
2022/03/23 02:35:54;;;;;;;0.50;0.50;;;4.30;68.80;;;;;;5031260;28;20032;-72
2022/03/23 02:38:20;;;;;;;0.30;0.30;;;4.30;69.30;;;;;;5032667;28;20481;-72
2022/03/23 02:40:47;;;;;;;0.40;0.40;;;4.50;69.20;;;;;;5015005;28;20040;-72
2022/03/23 02:43:13;;;;;;;0.43;0.43;;;4.50;68.30;;;;;;5032759;28;20067;-72
2022/03/23 02:45:39;;;;;;;0.40;0.40;;;4.40;68.50;;;;;;5032393;28;20117;-72
2022/03/23 02:48:06;;;;;;;4.72;2.72;;;4.20;69.10;;;;;;5032526;28;20489;-72
2022/03/23 02:50:33;;;;;;;3.60;3.03;;;4.00;69.30;;;;;;5014853;28;20053;-72
2022/03/23 03:01:52;;;;;;;0.75;0.50;;;3.70;71.00;;;;;;5032166;28;20021;-72
2022/03/23 03:04:18;;;;;;;0.50;0.50;;;3.50;72.40;;;;;;5032290;28;20049;-72
2022/03/23 03:06:45;;;;;;;0.40;0.40;;;3.60;72.50;;;;;;5014515;28;20049;-72
2022/03/23 03:09:12;;;;;;;0.40;0.40;;;4.00;71.70;;;;;;5032050;28;20029;-72
2022/03/23 03:11:38;;;;;;;0.30;0.30;;;4.20;70.50;;;;;;4998090;28;20026;-72
2022/03/23 03:14:04;;;;;;;2.83;2.53;;;4.40;69.60;;;;;;5031937;28;20377;-72
2022/03/23 03:16:30;;;;;;;0.40;0.40;;;4.50;69.50;;;;;;5031984;28;20029;-72
2022/03/23 03:18:56;;;;;;;0.40;0.40;;;4.50;69.10;;;;;;5014478;28;20542;-72
2022/03/23 03:21:22;;;;;;;0.40;0.40;;;4.60;69.20;;;;;;5014410;28;20104;-72
2022/03/23 03:23:48;;;;;;;0.50;0.50;;;4.50;69.70;;;;;;5030423;28;20041;-72
2022/03/23 03:26:15;;;;;;;0.30;0.30;;;4.50;70.10;;;;;;5031788;28;20032;-72
2022/03/23 03:28:42;;;;;;;0.57;0.57;;;4.40;70.10;;;;;;5014197;28;20029;-72
2022/03/23 03:31:10;;;;;;;0.30;0.30;;;4.50;69.40;;;;;;4997804;28;20028;-74
2022/03/23 03:33:37;;;;;;;1.02;1.02;;;4.40;69.40;;;;;;5014226;28;20097;-74
2022/03/23 03:36:04;;;;;;;1.25;1.25;;;4.20;70.30;;;;;;5031588;28;20031;-74
2022/03/23 03:38:30;;;;;;;0.50;0.50;;;4.00;70.80;;;;;;5031724;28;20036;-74
2022/03/23 03:40:57;;;;;;;0.30;0.30;;;4.00;71.20;;;;;;5030711;28;20060;-74
2022/03/23 03:43:24;;;;;;;0.30;0.30;;;4.20;70.20;;;;;;5014147;28;20033;-74
2022/03/23 03:45:51;;;;;;;0.30;0.30;;;4.20;68.70;;;;;;5031574;28;20531;-74
2022/03/23 03:48:17;;;;;;;0.35;0.35;;;4.40;67.60;;;;;;4997787;28;20102;-74
2022/03/23 03:50:44;;;;;;;0.75;0.75;;;4.50;67.30;;;;;;5030353;28;20117;-74
2022/03/23 03:53:10;;;;;;;0.30;0.30;;;4.60;66.60;;;;;;5031734;28;20026;-74
2022/03/23 03:55:39;;;;;;;0.30;0.30;;;4.60;66.30;;;;;;5014035;28;20076;-74
2022/03/23 03:58:06;;;;;;;0.30;0.30;;;4.70;66.90;;;;;;5013832;28;20076;-74
2022/03/23 04:00:35;;;;;;;0.43;0.43;;;4.90;66.20;;;;;;5031687;28;20021;-74
2022/03/23 04:03:02;;;;;;;0.47;0.47;;;5.00;65.00;;;;;;5013981;28;20025;-74
2022/03/23 04:05:29;;;;;;;0.52;0.52;;;5.00;64.90;;;;;;5013708;28;20139;-74
2022/03/23 04:07:55;;;;;;;0.70;0.70;;;4.70;65.70;;;;;;5030192;28;20037;-74
2022/03/23 04:10:22;;;;;;;0.30;0.30;;;4.40;67.20;;;;;;5031493;28;20078;-74
2022/03/23 04:12:48;;;;;;;0.50;0.50;;;4.40;67.40;;;;;;5013791;28;20290;-74
2022/03/23 04:15:19;;;;;;;0.40;0.40;;;4.20;67.30;;;;;;5030115;28;20358;-74
2022/03/23 04:17:45;;;;;;;0.30;0.30;;;4.20;68.00;;;;;;5013885;28;20029;-74
2022/03/23 04:20:12;;;;;;;1.55;0.68;;;4.30;68.50;;;;;;5031291;28;20036;-74
2022/03/23 04:22:41;;;;;;;0.38;0.38;;;4.20;68.90;;;;;;5014525;28;20519;-74
2022/03/23 04:25:08;;;;;;;0.60;0.60;;;3.90;70.10;;;;;;5017382;28;20103;-74
2022/03/23 04:27:43;;;;;;;0.30;0.30;;;3.60;71.50;;;;;;5017332;28;20549;-74
2022/03/23 04:30:11;;;;;;;5.20;1.48;;;3.40;72.80;;;;;;5035005;28;20415;-74
2022/03/23 04:32:36;;;;;;;0.50;0.50;;;3.30;74.20;;;;;;5035222;28;20018;-74
2022/03/23 04:35:02;;;;;;;0.55;0.55;;;3.30;73.90;;;;;;5034905;28;20080;-74
2022/03/23 04:37:28;;;;;;;0.80;0.75;;;3.10;73.80;;;;;;5034717;28;20441;-73
2022/03/23 04:39:54;;;;;;;0.40;0.40;;;3.10;73.30;;;;;;5017246;28;20109;-74
2022/03/23 04:42:19;;;;;;;1.20;0.77;;;3.00;73.20;;;;;;5033564;28;20104;-73
2022/03/23 04:44:45;;;;;;;0.60;0.60;;;3.20;73.00;;;;;;5034723;28;20026;-74
2022/03/23 04:47:11;;;;;;;0.30;0.30;;;3.30;72.30;;;;;;5034745;28;20064;-74
2022/03/23 04:49:37;;;;;;;0.40;0.40;;;3.40;71.70;;;;;;5034993;28;20053;-74
2022/03/23 04:52:03;;;;;;;0.30;0.30;;;3.30;71.30;;;;;;5000361;28;20470;-74
2022/03/23 04:54:29;;;;;;;0.45;0.45;;;3.40;71.20;;;;;;5017108;28;20026;-74
2022/03/23 04:56:54;;;;;;;0.93;0.93;;;3.50;70.60;;;;;;5034339;28;20087;-74
2022/03/23 04:59:21;;;;;;;0.50;0.50;;;3.70;70.40;;;;;;5033248;28;20056;-74
2022/03/23 05:01:47;;;;;;;0.32;0.32;;;3.80;69.80;;;;;;5034492;28;20044;-74
2022/03/23 05:04:13;;;;;;;3.95;1.02;;;3.70;70.10;;;;;;5034315;28;20033;-74
2022/03/23 05:06:39;;;;;;;0.40;0.40;;;3.70;69.90;;;;;;5033053;28;20034;-74
2022/03/23 05:09:05;;;;;;;1.10;1.00;;;3.70;70.00;;;;;;5034280;28;20392;-73
2022/03/23 05:11:30;;;;;;;1.33;0.88;;;3.50;70.50;;;;;;5032847;28;20021;-74
2022/03/23 05:13:56;;;;;;;2.63;1.52;;;3.60;71.10;;;;;;5016681;28;20481;-74
2022/03/23 05:16:22;;;;;;;0.32;0.32;;;3.70;70.60;;;;;;5034061;28;20030;-74
2022/03/23 05:18:48;;;;;;;4.70;0.93;;;3.70;70.20;;;;;;5032835;28;20400;-74
2022/03/23 05:21:14;;;;;;;0.40;0.40;;;3.60;69.60;;;;;;5033889;28;20057;-74
2022/03/23 05:23:40;;;;;;;0.50;0.50;;;3.40;70.00;;;;;;5032726;28;20533;-74
2022/03/23 05:26:06;;;;;;;0.40;0.40;;;3.40;69.90;;;;;;5016267;28;20105;-74
2022/03/23 05:28:32;;;;;;;0.82;0.82;;;3.50;69.80;;;;;;5032922;28;20116;-74
2022/03/23 05:30:57;;;;;;;0.40;0.40;;;3.50;69.90;;;;;;4999952;28;20127;-74
2022/03/23 05:33:23;;;;;;;0.55;0.55;;;3.70;69.60;;;;;;5033764;28;20034;-74
2022/03/23 05:35:49;;;;;;;0.40;0.40;;;3.70;68.80;;;;;;5031583;28;20029;-74
2022/03/23 05:38:15;;;;;;;1.00;0.82;;;3.80;67.70;;;;;;5033783;28;20485;-74
2022/03/23 05:40:40;;;;;;;1.20;1.20;;;3.90;66.70;;;;;;5032409;28;20029;-74
2022/03/23 05:43:06;;;;;;;0.30;0.30;;;4.10;66.80;;;;;;5032570;28;20106;-74
2022/03/23 05:45:32;;;;;;;1.35;1.30;;;4.30;66.80;;;;;;5015938;28;20051;-74
2022/03/23 05:47:58;;;;;;;1.20;1.00;;;4.40;66.40;;;;;;5033596;28;20030;-74
2022/03/23 05:50:24;;;;;;;8.13;1.27;;;4.30;66.60;;;;;;5015863;28;20515;-74
2022/03/23 05:52:49;;;;;;;0.32;0.32;;;4.10;67.00;;;;;;5033878;28;20474;-74
2022/03/23 05:55:15;;;;;;;0.30;0.30;;;4.10;67.40;;;;;;5033350;28;20079;-74
2022/03/23 05:57:41;;;;;;;0.30;0.30;;;4.20;67.50;;;;;;5033371;28;20051;-74
2022/03/23 06:00:09;;;;;;;0.32;0.32;;;4.30;67.30;;;;;;5033438;28;20057;-74
2022/03/23 06:02:35;;;;;;;0.30;0.30;;;4.40;67.30;;;;;;5015732;28;20497;-74
2022/03/23 06:05:00;;;;;;;0.40;0.40;;;4.50;66.80;;;;;;5033378;28;20055;-74
2022/03/23 06:07:26;;;;;;;0.30;0.30;;;4.50;67.10;;;;;;5033011;28;20513;-74
2022/03/23 06:09:52;;;;;;;0.40;0.40;;;4.60;65.70;;;;;;5031906;28;20055;-74
2022/03/23 06:12:18;;;;;;;0.40;0.40;;;4.80;65.30;;;;;;5023164;28;20710;-74
2022/03/23 06:14:43;;;;;;;0.70;0.70;;;4.90;65.20;;;;;;5022846;28;20041;-73
2022/03/23 06:17:10;;;;;;;0.43;0.43;;;5.00;65.30;;;;;;5023244;28;20029;-74
2022/03/23 06:19:36;;;;;;;0.30;0.30;;;5.10;65.40;;;;;;5022750;28;20393;-74
2022/03/23 06:22:03;;;;;;;0.63;0.63;;;5.20;65.80;;;;;;5022982;28;20069;-74
2022/03/23 06:24:29;;;;;;;0.55;0.55;;;5.40;66.70;;;;;;5004682;28;20326;-74
2022/03/23 06:26:55;;;;;;;0.40;0.40;;;5.40;66.10;;;;;;5023086;28;20037;-74
2022/03/23 06:29:21;;;;;;;0.40;0.40;;;5.50;64.10;;;;;;5023008;28;20148;-74
2022/03/23 06:31:46;;;;;;;0.30;0.30;;;5.70;62.10;;;;;;5023318;28;20025;-74
2022/03/23 06:34:12;;;;;;;0.30;0.30;;;5.90;59.70;;;;;;5005197;28;20025;-74
2022/03/23 06:36:38;;;;;;;0.90;0.73;;;6.10;57.90;;;;;;5004296;28;20389;-74
2022/03/23 06:39:05;;;;;;;1.98;0.90;;;6.20;56.70;;;;;;5023269;28;20032;-74
2022/03/23 06:41:31;;;;;;;0.77;0.77;;;6.40;56.40;;;;;;5004611;28;20558;-71
2022/03/23 06:43:57;;;;;;;3.40;1.52;;;6.50;56.30;;;;;;4988501;28;20140;-71
2022/03/23 06:46:23;;;;;;;0.30;0.30;;;6.70;55.20;;;;;;5021689;28;20109;-73
2022/03/23 06:48:49;;;;;;;0.40;0.40;;;6.90;54.80;;;;;;5022265;28;20044;-72
2022/03/23 06:51:15;;;;;;;1.65;0.77;;;7.00;55.40;;;;;;5022468;28;20030;-72
2022/03/23 06:53:41;;;;;;;0.30;0.30;;;7.20;55.40;;;;;;5021878;28;20087;-72
2022/03/23 06:56:08;;;;;;;0.30;0.30;;;7.30;55.10;;;;;;5022697;28;20033;-72
2022/03/23 06:58:34;;;;;;;0.88;0.88;;;7.50;54.40;;;;;;5004387;28;20103;-72
2022/03/23 07:01:00;;;;;;;0.30;0.30;;;7.60;53.00;;;;;;5004065;28;20168;-72
2022/03/23 07:03:27;;;;;;;0.70;0.70;;;7.70;52.50;;;;;;5021946;28;20060;-72
2022/03/23 07:05:52;;;;;;;0.60;0.60;;;7.90;52.00;;;;;;5020562;28;20059;-72
2022/03/23 07:11:04;;;;;;;0.28;0.28;;;8.10;51.50;;;;;;5004255;28;20033;-72
2022/03/23 07:13:29;;;;;;;0.30;0.30;;;8.30;51.70;;;;;;5003982;28;20030;-72
2022/03/23 07:15:55;;;;;;;0.90;0.90;;;8.40;51.50;;;;;;5021705;28;20029;-72
2022/03/23 07:18:21;;;;;;;4.18;1.40;;;8.40;51.20;;;;;;5003773;28;20028;-72
2022/03/23 07:20:47;;;;;;;0.50;0.50;;;8.50;51.00;;;;;;5021534;28;20440;-72
2022/03/23 07:23:13;;;;;;;0.90;0.85;;;8.40;50.50;;;;;;5021430;28;20045;-72
2022/03/23 07:25:38;;;;;;;0.75;0.50;;;8.50;50.00;;;;;;5021849;28;20029;-72
2022/03/23 07:28:04;;;;;;;1.95;0.65;;;8.50;49.30;;;;;;5021957;28;21221;-72
2022/03/23 07:30:33;;;;;;;0.43;0.43;;;8.60;49.20;;;;;;5021505;28;20029;-72
2022/03/23 07:33:03;;;;;;;0.28;0.28;;;8.70;50.50;;;;;;5003246;28;20041;-72
2022/03/23 07:35:29;;;;;;;0.30;0.30;;;8.90;50.30;;;;;;5021393;28;20374;-72
2022/03/23 07:37:56;;;;;;;0.20;0.20;;;9.00;50.30;;;;;;5020688;28;20052;-72
2022/03/23 07:40:21;;;;;;;0.30;0.30;;;9.10;50.40;;;;;;5021789;28;20736;-72
2022/03/23 07:42:47;;;;;;;0.30;0.30;;;9.30;50.90;;;;;;5003128;28;20090;-72
2022/03/23 07:45:14;;;;;;;0.30;0.30;;;9.40;52.30;;;;;;5021615;28;20033;-72
2022/03/23 07:47:40;;;;;;;0.20;0.20;;;9.50;53.50;;;;;;5021401;28;20508;-73
2022/03/23 07:50:07;;;;;;;0.30;0.30;;;9.60;52.70;;;;;;5003910;28;20029;-72
2022/03/23 07:52:34;;;;;;;0.20;0.20;;;9.70;52.20;;;;;;5021017;28;20336;-74
2022/03/23 07:55:03;;;;;;;0.30;0.30;;;9.80;51.00;;;;;;5003629;28;20557;-73
2022/03/23 07:57:29;;;;;;;0.38;0.38;;;9.90;51.00;;;;;;5021499;28;20456;-73
2022/03/23 07:59:55;;;;;;;0.20;0.20;;;10.00;50.60;;;;;;5026737;28;20552;-74
2022/03/23 08:02:23;;;;;;;2.45;0.63;;;10.10;50.10;;;;;;5006579;28;20095;-74
2022/03/23 08:04:50;;;;;;;2.47;1.40;;;10.20;49.70;;;;;;5023894;28;20025;-74
2022/03/23 08:07:15;;;;;;;1.75;0.77;;;10.30;49.40;;;;;;5006516;28;20116;-74
2022/03/23 08:09:41;;;;;;;0.28;0.28;;;10.30;47.50;;;;;;5023911;28;20036;-74
2022/03/23 08:12:09;;;;;;;0.20;0.20;;;10.30;47.40;;;;;;5023479;28;20029;-74
2022/03/23 08:14:34;;;;;;;2.25;2.15;;;10.30;47.40;;;;;;5021465;28;20098;-74
2022/03/23 08:17:00;;;;;;;5.47;2.08;;;10.40;47.00;;;;;;5024371;28;20030;-74
2022/03/23 08:19:26;;;;;;;1.10;1.10;;;10.50;47.40;;;;;;5024114;28;20030;-74
2022/03/23 08:21:53;;;;;;;0.63;0.63;;;10.50;47.00;;;;;;5023622;28;20034;-74
2022/03/23 08:24:19;;;;;;;2.20;1.35;;;10.60;46.90;;;;;;5022920;28;20047;-74
2022/03/23 08:26:45;;;;;;;1.83;1.67;;;10.60;47.30;;;;;;5023775;28;20037;-74
2022/03/23 08:29:11;;;;;;;0.20;0.20;;;10.60;46.80;;;;;;5005039;28;20044;-74
2022/03/23 08:31:38;;;;;;;5.47;2.35;;;10.70;47.00;;;;;;5025172;28;20467;-80
2022/03/23 08:34:04;;;;;;;3.15;1.55;;;10.80;47.10;;;;;;4991184;28;20033;-73
2022/03/23 08:36:31;;;;;;;5.72;2.50;;;10.80;46.30;;;;;;5006712;28;20452;-73
2022/03/23 08:38:57;;;;;;;3.72;3.25;;;10.90;46.20;;;;;;5024032;28;20055;-73
2022/03/23 08:41:23;;;;;;;1.40;0.95;;;11.00;46.80;;;;;;5024155;28;20116;-73
2022/03/23 08:43:49;;;;;;;3.78;2.50;;;11.10;46.80;;;;;;5024108;28;20116;-73
2022/03/23 08:46:14;;;;;;;4.85;2.33;;;11.20;47.30;;;;;;5006589;28;20489;-73
2022/03/23 08:48:41;;;;;;;0.85;0.68;;;11.40;46.60;;;;;;5005830;28;20029;-73
2022/03/23 08:51:07;;;;;;;2.65;1.48;;;11.50;45.90;;;;;;5023757;28;20044;-73
2022/03/23 08:53:33;;;;;;;0.63;0.63;;;11.50;45.60;;;;;;5023280;28;20034;-73
2022/03/23 08:55:59;;;;;;;1.70;1.20;;;11.70;46.20;;;;;;4988978;28;20953;-73
2022/03/23 08:58:26;;;;;;;0.20;0.20;;;11.90;46.00;;;;;;5005185;28;20056;-73
2022/03/23 09:00:52;;;;;;;0.88;0.82;;;12.10;45.90;;;;;;5005105;28;20048;-73
2022/03/23 09:03:18;;;;;;;4.03;1.27;;;12.40;45.10;;;;;;4988735;28;20041;-73
2022/03/23 09:05:44;;;;;;;1.65;1.48;;;12.60;44.80;;;;;;5004313;28;20037;-73
2022/03/23 09:08:09;;;;;;;0.30;0.30;;;12.90;44.40;;;;;;5023179;28;20025;-73
2022/03/23 09:10:36;;;;;;;4.63;3.70;;;13.40;44.10;;;;;;5022366;28;20124;-73
2022/03/23 09:13:02;;;;;;;2.83;0.77;;;13.90;43.30;;;;;;5023167;28;20037;-73
2022/03/23 09:15:27;;;;;;;0.20;0.20;;;14.10;42.50;;;;;;5022725;28;20382;-73
2022/03/23 09:17:59;;;;;;;2.83;0.80;;;14.30;42.10;;;;;;4988507;28;20060;-73
2022/03/23 09:20:28;;;;;;;;;;;14.70;41.80;;;;;;5022500;28;20038;-73
2022/03/23 09:22:55;;;;;;;1.45;0.85;;;14.90;41.10;;;;;;5022066;28;19912;-73
2022/03/23 09:25:22;;;;;;;0.10;0.10;;;15.50;40.50;;;;;;5003673;28;20120;-74
2022/03/23 09:27:49;;;;;;;1.42;1.33;;;15.50;39.60;;;;;;5021004;28;20039;-73
2022/03/23 09:30:15;;;;;;;0.30;0.30;;;15.60;40.00;;;;;;5022045;28;20504;-73
2022/03/23 09:32:43;;;;;;;1.42;1.33;;;16.00;39.80;;;;;;5022039;28;20041;-73
2022/03/23 09:35:09;;;;;;;1.20;1.20;;;16.00;39.30;;;;;;5003946;28;20029;-73
2022/03/23 09:37:47;;;;;;;4.38;1.38;;;16.40;39.80;;;;;;5022122;28;20422;-75
2022/03/23 09:40:25;;;;;;;4.22;2.72;;;17.00;38.50;;;;;;5022132;28;20071;-73
2022/03/23 09:42:55;;;;;;;1.60;1.35;;;17.30;37.90;;;;;;5004085;28;20108;-73
2022/03/23 09:48:02;;;;;;;0.10;0.10;;;17.90;36.70;;;;;;5021540;28;20571;-73
2022/03/23 09:50:29;;;;;;;1.27;1.20;;;18.30;36.40;;;;;;5021657;28;20042;-73
2022/03/23 09:52:56;;;;;;;2.40;1.27;;;18.40;34.70;;;;;;5004358;28;20029;-73
2022/03/23 09:55:23;;;;;;;0.47;0.47;;;18.50;35.00;;;;;;5021386;28;20026;-74
2022/03/23 09:57:48;;;;;;;0.80;0.80;;;18.70;35.30;;;;;;5021611;28;20033;-74
2022/03/23 10:00:15;;;;;;;0.10;0.10;;;19.10;34.10;;;;;;5021008;28;20041;-74
2022/03/23 10:02:40;;;;;;;3.25;2.95;;;19.60;33.50;;;;;;5003488;28;20932;-74
2022/03/23 10:05:44;;;;;;;0.63;0.45;;;20.00;32.90;;;;;;5003249;28;20071;-73
2022/03/23 10:08:29;;;;;;;0.20;0.20;;;19.70;32.90;;;;;;4985616;28;20687;-74
2022/03/23 10:11:33;;;;;;;0.20;0.20;;;20.30;32.90;;;;;;5020396;28;20037;-74
2022/03/23 10:14:23;;;;;;;0.55;0.50;;;20.90;31.70;;;;;;5021509;28;20095;-73
2022/03/23 10:17:29;;;;;;;0.80;0.80;;;21.30;31.40;;;;;;4986582;28;20037;-74
2022/03/23 10:19:55;;;;;;;8.20;0.90;;;21.40;29.80;;;;;;5002657;28;20033;-74
2022/03/23 10:22:26;;;;;;;1.23;0.75;;;21.60;30.40;;;;;;5020865;28;20034;-73
2022/03/23 10:24:52;;;;;;;2.17;1.08;;;21.90;29.80;;;;;;5020862;28;20556;-74
2022/03/23 10:27:20;;;;;;;2.20;1.33;;;21.80;29.60;;;;;;5003395;28;20116;-74
2022/03/23 10:29:54;;;;;;;0.00;0.00;;;21.90;30.10;;;;;;5020585;28;20032;-74
2022/03/23 10:32:21;;;;;;;2.92;1.42;;;22.10;29.90;;;;;;5021249;28;20156;-74
2022/03/23 10:34:52;;;;;;;6.53;2.35;;;22.10;29.40;;;;;;5020756;28;20025;-73
2022/03/23 10:37:26;;;;;;;0.10;0.10;;;21.20;29.90;;;;;;5020545;28;20056;-74
2022/03/23 10:39:54;;;;;;;0.57;0.57;;;21.50;30.00;;;;;;5021000;28;20048;-74
2022/03/23 10:42:23;;;;;;;5.10;1.95;;;21.60;30.60;;;;;;5003178;28;20091;-74
2022/03/23 10:44:49;;;;;;;1.42;1.33;;;21.70;30.20;;;;;;5002424;28;20125;-74
2022/03/23 10:47:31;;;;;;;1.10;0.98;;;22.10;30.10;;;;;;4986416;28;20152;-74
2022/03/23 10:50:05;;;;;;;0.30;0.30;;;22.30;28.90;;;;;;5020761;28;20438;-74
2022/03/23 10:52:32;;;;;;;17.98;6.55;;;22.60;29.30;;;;;;5002743;28;20477;-74
2022/03/23 10:55:05;;;;;;;0.43;0.43;;;22.80;28.80;;;;;;5002733;28;20033;-74
2022/03/23 10:57:42;;;;;;;1.48;0.98;;;23.00;28.30;;;;;;5020940;28;20041;-74
2022/03/23 11:00:08;;;;;;;1.45;0.75;;;22.50;26.90;;;;;;5018809;28;20492;-73
2022/03/23 11:02:48;;;;;;;0.43;0.43;;;22.80;27.40;;;;;;5020001;28;20144;-74
2022/03/23 11:05:36;;;;;;;2.45;1.13;;;23.20;26.70;;;;;;5001643;28;20120;-74
2022/03/23 11:08:14;;;;;;;1.08;0.90;;;23.00;25.90;;;;;;5002051;28;20037;-73
2022/03/23 11:16:27;;;;;;;5.82;2.65;;;23.90;26.00;;;;;;5020015;28;20529;-74
2022/03/23 11:19:11;;;;;;;4.80;2.75;;;23.50;26.00;;;;;;5020493;28;20033;-74
2022/03/23 11:21:59;;;;;;;4.30;1.35;;;23.10;27.00;;;;;;5019252;28;20091;-74
2022/03/23 11:24:32;;;;;;;0.43;0.43;;;23.10;26.30;;;;;;5019599;28;20041;-73
2022/03/23 11:26:58;;;;;;;0.85;0.85;;;23.40;26.10;;;;;;5019192;28;20029;-74
2022/03/23 11:29:24;;;;;;;1.00;1.00;;;23.20;25.90;;;;;;5020126;28;20036;-74
2022/03/23 11:31:53;;;;;;;0.57;0.47;;;23.90;26.30;;;;;;5000838;28;20485;-74
2022/03/23 11:34:22;;;;;;;4.55;3.53;;;24.00;26.00;;;;;;5002326;28;20040;-74
2022/03/23 11:36:51;;;;;;;1.13;0.68;;;24.30;25.70;;;;;;5019934;28;20337;-74
2022/03/23 11:39:18;;;;;;;2.00;1.70;;;24.70;24.90;;;;;;5019763;28;20079;-74
2022/03/23 11:41:46;;;;;;;1.17;0.85;;;24.90;24.50;;;;;;5019321;28;20045;-74
2022/03/23 11:44:15;;;;;;;2.83;1.38;;;24.60;24.50;;;;;;5019539;28;20429;-74
2022/03/23 11:46:42;;;;;;;2.13;1.30;;;24.20;25.00;;;;;;5001556;28;20037;-74
2022/03/23 11:49:20;;;;;;;0.63;0.63;;;24.50;25.20;;;;;;5019571;28;20512;-74
2022/03/23 11:52:12;;;;;;;0.00;0.00;;;24.70;24.20;;;;;;5001699;28;20036;-74
2022/03/23 11:57:56;;;;;;;3.15;1.48;;;24.90;24.40;;;;;;5019490;28;20105;-74
2022/03/23 12:00:24;;;;;;;0.68;0.68;;;24.80;24.10;;;;;;5001899;28;20037;-74
2022/03/23 12:02:50;;;;;;;1.05;0.95;;;25.10;24.10;;;;;;5019983;28;20049;-74
2022/03/23 12:05:28;;;;;;;1.20;1.13;;;25.20;24.00;;;;;;5002052;28;20866;-74
2022/03/23 12:07:54;;;;;;;2.53;2.28;;;25.00;23.40;;;;;;5019705;28;20037;-74
2022/03/23 12:10:26;;;;;;;0.17;0.17;;;25.40;23.00;;;;;;5019629;28;20076;-74
2022/03/23 12:12:51;;;;;;;0.55;0.55;;;25.30;22.70;;;;;;5017728;28;20095;-74
2022/03/23 12:15:23;;;;;;;1.75;0.82;;;25.30;22.70;;;;;;5020089;28;20824;-74
2022/03/23 12:17:55;;;;;;;0.98;0.45;;;25.30;21.30;;;;;;5018686;28;20135;-74
2022/03/23 12:20:29;;;;;;;1.20;0.82;;;25.30;21.10;;;;;;5019419;28;20040;-74
2022/03/23 12:23:13;;;;;;;1.15;0.90;;;25.10;21.20;;;;;;5000442;28;20069;-74
2022/03/23 12:25:42;;;;;;;0.47;0.47;;;24.60;20.70;;;;;;5019309;28;20045;-74
2022/03/23 12:28:35;;;;;;;4.05;1.83;;;24.70;21.10;;;;;;5001301;28;20031;-74
2022/03/23 12:31:09;;;;;;;0.30;0.30;;;24.50;23.40;;;;;;5001639;28;20052;-74
2022/03/23 12:34:23;;;;;;;0.45;0.45;;;24.50;24.10;;;;;;5019276;28;20030;-74
2022/03/23 12:36:57;;;;;;;0.75;0.50;;;24.10;24.90;;;;;;4987250;28;20072;-74
2022/03/23 12:39:37;;;;;;;1.58;1.27;;;23.70;25.00;;;;;;5001828;28;20787;-74
2022/03/23 12:42:12;;;;;;;0.30;0.30;;;23.80;24.70;;;;;;5001348;28;20033;-74
2022/03/23 12:44:47;;;;;;;0.85;0.75;;;23.80;24.50;;;;;;5022183;28;20049;-73
2022/03/23 12:47:18;;;;;;;0.00;0.00;;;23.50;24.70;;;;;;5022686;28;20096;-74
2022/03/23 12:58:18;;;;;;;0.20;0.20;;;22.90;23.70;;;;;;5022407;28;20036;-73
2022/03/23 13:00:47;;;;;;;0.33;0.33;;;21.90;24.10;;;;;;5023471;28;20264;-74
2022/03/23 13:03:18;;;;;;;2.85;2.25;;;22.10;24.40;;;;;;5004663;28;20043;-74
2022/03/23 13:05:59;;;;;;;9.68;0.93;;;22.20;24.50;;;;;;5005223;28;20030;-74
2022/03/23 13:08:30;;;;;;;0.10;0.10;;;22.10;24.30;;;;;;5022397;28;20415;-74
2022/03/23 13:10:58;;;;;;;0.35;0.10;;;22.00;24.50;;;;;;4988439;28;20564;-74
2022/03/23 13:13:24;;;;;;;3.90;1.58;;;22.10;23.40;;;;;;5022440;28;20488;-74
2022/03/23 13:15:51;;;;;;;2.25;2.05;;;22.10;23.50;;;;;;5005217;28;20022;-75
2022/03/23 13:18:23;;;;;;;0.03;0.03;;;22.00;24.00;;;;;;4988393;28;20037;-74
2022/03/23 13:20:50;;;;;;;0.20;0.20;;;21.80;23.60;;;;;;5022370;28;20041;-74
2022/03/23 13:23:17;;;;;;;0.10;0.10;;;21.70;24.00;;;;;;5022294;28;20605;-75
2022/03/23 13:25:59;;;;;;;2.45;1.58;;;21.90;22.50;;;;;;5014047;28;20109;-74
2022/03/23 13:28:25;;;;;;;;;;;21.80;22.50;;;;;;5004670;28;20410;-74
2022/03/23 13:30:58;;;;;;;0.17;0.17;;;21.60;23.30;;;;;;5004975;28;20364;-74